Time;durP1;ratioP1;P1;durP2;ratioP2;P2;SDS_P1;SDS_P2;PMS_P1;PMS_P2;Temp;Humidity;BMP_temperature;BMP_pressure;BME280_temperature;BME280_humidity;BME280_pressure;Samples;Min_cycle;Max_cycle;Signal;HPM_P1;HPM_P2
2022/05/24 00:02:07;;;;;;;;;13.50;11.50;;;;;14.93;77.31;98467.28;5057507;28;9635;-62
2022/05/24 00:04:35;;;;;;;;;15.00;13.00;;;;;14.95;77.36;98464.44;5047508;28;8821;-62
2022/05/24 00:07:03;;;;;;;;;14.50;13.00;;;;;14.97;77.00;98470.44;5035937;28;8870;-62
2022/05/24 00:09:31;;;;;;;;;13.25;11.00;;;;;15.00;76.59;98468.22;5035209;28;8865;-62
2022/05/24 00:11:58;;;;;;;;;15.00;14.00;;;;;15.03;76.41;98469.69;5035063;28;8848;-62
2022/05/24 00:17:12;;;;;;;;;28.50;21.00;;;;;15.07;76.62;98470.97;5036901;28;8872;-62
2022/05/24 00:19:39;;;;;;;;;20.50;16.50;;;;;15.09;76.57;98477.81;5037045;28;8967;-62
2022/05/24 00:22:07;;;;;;;;;22.25;17.00;;;;;15.11;76.18;98477.63;5037099;28;9580;-62
2022/05/24 00:24:35;;;;;;;;;14.00;13.50;;;;;15.14;75.91;98487.97;5035343;28;8856;-62
2022/05/24 00:27:03;;;;;;;;;16.00;13.50;;;;;15.18;76.76;98474.00;5034840;28;8898;-62
2022/05/24 00:29:31;;;;;;;;;23.00;21.50;;;;;15.21;75.54;98473.66;5049613;28;8830;-62
2022/05/24 00:31:59;;;;;;;;;16.50;15.50;;;;;15.25;76.13;98461.50;5054565;28;8842;-63
2022/05/24 00:34:27;;;;;;;;;19.50;16.00;;;;;15.27;75.48;98469.38;5054403;28;8853;-63
2022/05/24 00:36:55;;;;;;;;;18.75;17.00;;;;;15.29;75.73;98473.53;5054554;28;8927;-63
2022/05/24 00:39:23;;;;;;;;;21.50;16.50;;;;;15.29;76.30;98472.69;5056297;28;8830;-66
2022/05/24 00:41:51;;;;;;;;;20.50;18.00;;;;;15.27;75.88;98485.47;5056054;28;8838;-62
2022/05/24 00:44:18;;;;;;;;;18.50;18.50;;;;;15.27;75.78;98472.06;5056639;28;8862;-63
2022/05/24 00:46:46;;;;;;;;;21.25;19.75;;;;;15.27;75.70;98461.34;5056484;28;8840;-63
2022/05/24 00:49:14;;;;;;;;;15.75;14.00;;;;;15.27;75.94;98459.50;5056186;28;8888;-63
2022/05/24 00:51:42;;;;;;;;;9.00;7.00;;;;;15.26;76.38;98465.03;5056276;28;8972;-62
2022/05/24 00:54:09;;;;;;;;;15.75;14.00;;;;;15.27;75.65;98458.66;5055839;28;8846;-63
2022/05/24 00:56:37;;;;;;;;;15.75;13.00;;;;;15.25;75.97;98450.78;5055736;28;9338;-63
2022/05/24 00:59:05;;;;;;;;;17.50;15.50;;;;;15.25;76.07;98445.41;5043340;28;8891;-63
2022/05/24 01:01:33;;;;;;;;;15.50;11.00;;;;;15.25;75.98;98449.97;5035556;28;8828;-63
2022/05/24 01:04:01;;;;;;;;;13.50;13.00;;;;;15.23;76.47;98447.47;5035906;28;8833;-62
2022/05/24 01:06:28;;;;;;;;;12.75;12.00;;;;;15.23;75.99;98441.25;5035975;28;8954;-63
2022/05/24 01:08:56;;;;;;;;;12.25;12.00;;;;;15.23;76.26;98446.63;5035529;28;8840;-62
2022/05/24 01:11:24;;;;;;;;;11.50;9.50;;;;;15.24;75.67;98445.63;5035542;28;8975;-63
2022/05/24 01:13:52;;;;;;;;;6.00;4.00;;;;;15.22;76.13;98450.34;5035368;28;8868;-63
2022/05/24 01:16:19;;;;;;;;;11.00;9.50;;;;;15.22;76.14;98444.97;5035054;28;8836;-62
2022/05/24 01:18:47;;;;;;;;;12.25;12.00;;;;;15.22;76.31;98440.44;5034815;28;8918;-62
2022/05/24 01:21:15;;;;;;;;;10.00;10.00;;;;;15.23;75.99;98438.59;5035195;28;9626;-63
2022/05/24 01:23:43;;;;;;;;;11.00;9.00;;;;;15.22;76.41;98440.44;5035246;28;8864;-63
2022/05/24 01:26:10;;;;;;;;;11.00;9.00;;;;;15.21;76.16;98440.63;5035052;28;8868;-63
2022/05/24 01:28:38;;;;;;;;;9.00;9.00;;;;;15.21;76.14;98443.31;5042986;28;8953;-62
2022/05/24 01:31:06;;;;;;;;;9.50;7.00;;;;;15.22;76.07;98444.97;5054666;28;8985;-63
2022/05/24 01:36:19;;;;;;;;;6.50;6.00;;;;;15.25;75.96;98450.78;5054840;28;8917;-63
2022/05/24 01:38:48;;;;;;;;;5.50;5.50;;;;;15.24;75.87;98448.31;5055739;28;8958;-63
2022/05/24 01:41:16;;;;;;;;;10.00;8.00;;;;;15.21;75.95;98448.66;5053418;28;8866;-63
2022/05/24 01:43:44;;;;;;;;;10.00;10.00;;;;;15.20;76.20;98449.69;5055913;28;9001;-63
2022/05/24 01:46:11;;;;;;;;;9.50;8.50;;;;;15.19;75.85;98445.34;5055396;28;9592;-63
2022/05/24 01:48:39;;;;;;;;;10.00;9.25;;;;;15.18;75.93;98443.69;5055351;28;8849;-62
2022/05/24 01:51:07;;;;;;;;;12.00;10.00;;;;;15.19;75.97;98440.00;5054299;28;8958;-63
2022/05/24 01:53:36;;;;;;;;;9.00;7.00;;;;;15.19;75.89;98445.34;5054329;28;8846;-62
2022/05/24 01:56:24;;;;;;;;;9.25;8.00;;;;;15.21;76.05;98449.53;5053769;28;8850;-64
2022/05/24 01:58:52;;;;;;;;;12.50;11.00;;;;;15.24;76.10;98448.31;5043807;28;8828;-63
2022/05/24 02:01:20;;;;;;;;;11.00;9.25;;;;;15.26;75.82;98449.75;5034304;28;9645;-63
2022/05/24 02:03:47;;;;;;;;;9.25;9.00;;;;;15.25;75.91;98455.34;5033671;28;8962;-62
2022/05/24 02:06:15;;;;;;;;;12.75;12.75;;;;;15.24;75.60;98454.50;5033964;28;8844;-62
2022/05/24 02:08:44;;;;;;;;;12.75;11.50;;;;;15.23;75.74;98452.00;5033805;28;8989;-62
2022/05/24 02:11:12;;;;;;;;;12.25;12.00;;;;;15.23;75.88;98452.00;5034159;28;8955;-63
2022/05/24 02:13:39;;;;;;;;;13.50;11.50;;;;;15.22;76.30;98443.13;5035371;28;8886;-62
2022/05/24 02:16:07;;;;;;;;;10.50;9.75;;;;;15.22;75.69;98444.97;5019831;28;8934;-63
2022/05/24 02:18:35;;;;;;;;;7.75;6.75;;;;;15.22;75.90;98456.53;5039343;28;8911;-63
2022/05/24 02:21:03;;;;;;;;;11.00;9.00;;;;;15.23;75.79;98462.72;5039244;28;8979;-62
2022/05/24 02:23:31;;;;;;;;;12.50;8.50;;;;;15.23;76.46;98455.53;5038591;28;8844;-63
2022/05/24 02:25:59;;;;;;;;;13.00;10.00;;;;;15.22;75.79;98456.53;5039385;28;8874;-63
2022/05/24 02:28:26;;;;;;;;;13.50;13.00;;;;;15.23;75.78;98446.63;5047725;28;8998;-63
2022/05/24 02:30:54;;;;;;;;;16.25;11.75;;;;;15.24;75.68;98448.31;5058802;28;8830;-62
2022/05/24 02:33:23;;;;;;;;;14.00;13.00;;;;;15.23;75.46;98450.16;5059056;28;8852;-62
2022/05/24 02:35:50;;;;;;;;;13.75;11.00;;;;;15.23;75.76;98442.09;5057472;28;8838;-63
2022/05/24 02:38:18;;;;;;;;;14.50;13.50;;;;;15.23;75.56;98441.25;5058206;28;8874;-63
2022/05/24 02:43:31;;;;;;;;;15.00;13.00;;;;;15.23;75.44;98444.78;5057681;28;8854;-63
2022/05/24 02:45:59;;;;;;;;;18.75;15.75;;;;;15.24;75.52;98442.94;5057580;28;8919;-63
2022/05/24 02:48:28;;;;;;;;;14.00;13.50;;;;;15.25;75.88;98439.25;5057641;28;8870;-62
2022/05/24 02:50:56;;;;;;;;;22.50;18.00;;;;;15.24;75.69;98443.75;5058963;28;8947;-63
2022/05/24 02:53:23;;;;;;;;;16.50;15.00;;;;;15.26;75.63;98440.91;5058848;28;8860;-63
2022/05/24 02:55:51;;;;;;;;;17.50;16.00;;;;;15.27;76.33;98450.63;5058108;28;8835;-62
2022/05/24 02:58:19;;;;;;;;;17.00;15.25;;;;;15.26;75.49;98446.28;5049334;28;8824;-63
2022/05/24 03:00:47;;;;;;;;;9.00;7.00;;;;;15.26;75.40;98439.03;5038024;28;9622;-62
2022/05/24 03:03:14;;;;;;;;;11.50;9.50;;;;;15.27;75.50;98427.31;5038333;28;9630;-62
2022/05/24 03:05:42;;;;;;;;;11.50;11.00;;;;;15.24;75.55;98427.69;5038723;28;8855;-62
2022/05/24 03:10:56;;;;;;;;;12.00;9.75;;;;;15.22;75.70;98432.41;5038059;28;8994;-62
2022/05/24 03:16:09;;;;;;;;;23.75;21.50;;;;;15.19;76.00;98434.63;5037515;28;8860;-63
2022/05/24 03:18:37;;;;;;;;;18.00;16.50;;;;;15.16;75.83;98432.34;5036571;28;8836;-62
2022/05/24 03:21:05;;;;;;;;;15.50;13.50;;;;;15.16;75.72;98435.00;5036550;28;8926;-62
2022/05/24 03:23:32;;;;;;;;;13.00;12.25;;;;;15.15;75.52;98426.13;5036350;28;8983;-62
2022/05/24 03:26:00;;;;;;;;;25.50;21.75;;;;;15.14;75.85;98431.66;5036092;28;8975;-62
2022/05/24 03:28:28;;;;;;;;;24.75;21.50;;;;;15.16;75.77;98429.66;5044043;28;8830;-63
2022/05/24 03:30:56;;;;;;;;;18.00;16.00;;;;;15.15;75.38;98433.31;5042630;28;8825;-63
2022/05/24 03:33:25;;;;;;;;;12.00;10.50;;;;;15.16;75.94;98435.81;5036083;28;8836;-63
2022/05/24 03:35:52;;;;;;;;;18.75;18.00;;;;;15.16;75.50;98432.34;5036378;28;8848;-63
2022/05/24 03:38:20;;;;;;;;;18.75;18.00;;;;;15.16;75.42;98435.81;5037090;28;8868;-68
2022/05/24 03:40:48;;;;;;;;;11.50;9.00;;;;;15.16;75.53;98435.00;5036926;28;8955;-62
2022/05/24 03:43:15;;;;;;;;;14.50;11.00;;;;;15.16;75.51;98435.00;5037493;28;8864;-62
2022/05/24 03:45:43;;;;;;;;;9.75;7.00;;;;;15.17;75.36;98436.69;5037020;28;8845;-66
2022/05/24 03:48:13;;;;;;;;;15.00;13.00;;;;;15.17;75.44;98436.69;5037885;28;8954;-63
2022/05/24 03:50:41;;;;;;;;;14.50;13.00;;;;;15.16;75.82;98435.81;5037286;28;8853;-63
2022/05/24 03:53:09;;;;;;;;;12.00;12.00;;;;;15.17;75.39;98439.34;5051800;28;8819;-63
2022/05/24 03:55:37;;;;;;;;;15.75;15.00;;;;;15.16;75.51;98435.00;5054382;28;8872;-63
2022/05/24 03:58:04;;;;;;;;;14.50;12.00;;;;;15.17;75.68;98431.31;5037316;28;8849;-63
2022/05/24 04:00:32;;;;;;;;;15.00;12.50;;;;;15.15;75.84;98434.16;5037721;28;8969;-64
2022/05/24 04:03:00;;;;;;;;;15.00;15.00;;;;;15.15;75.19;98436.84;5036683;28;8833;-63
2022/05/24 04:05:29;;;;;;;;;13.50;13.25;;;;;15.16;75.80;98443.88;5037146;28;8840;-62
2022/05/24 04:07:56;;;;;;;;;12.50;11.50;;;;;15.16;75.39;98446.56;5037399;28;8841;-63
2022/05/24 04:10:25;;;;;;;;;15.25;13.00;;;;;15.17;75.52;98450.09;5036636;28;8938;-63
2022/05/24 04:12:52;;;;;;;;;13.00;13.00;;;;;15.19;75.57;98448.03;5035598;28;8871;-63
2022/05/24 04:15:20;;;;;;;;;9.75;8.00;;;;;15.18;75.24;98441.00;5035739;28;8842;-64
2022/05/24 04:17:48;;;;;;;;;12.50;12.50;;;;;15.20;75.04;98441.66;5043932;28;8818;-63
2022/05/24 04:20:16;;;;;;;;;14.00;13.00;;;;;15.20;75.76;98444.34;5037444;28;8844;-63
2022/05/24 04:22:44;;;;;;;;;5.00;5.00;;;;;15.22;75.16;98461.91;5035117;28;8862;-63
2022/05/24 04:25:12;;;;;;;;;14.50;13.75;;;;;15.24;75.72;98464.41;5046914;28;8823;-63
2022/05/24 04:27:39;;;;;;;;;11.00;9.25;;;;;15.25;74.66;98466.88;5055474;28;8872;-64
2022/05/24 04:30:07;;;;;;;;;7.50;7.00;;;;;15.27;74.77;98453.28;5040994;28;8832;-62
2022/05/24 04:32:35;;;;;;;;;8.00;8.00;;;;;15.27;74.62;98456.81;5035542;28;8841;-63
2022/05/24 04:35:03;;;;;;;;;6.00;5.50;;;;;15.27;75.41;98453.28;5036033;28;8856;-63
2022/05/24 04:37:30;;;;;;;;;5.50;5.50;;;;;15.26;75.16;98467.72;5036324;28;9799;-63
2022/05/24 04:39:58;;;;;;;;;7.00;6.50;;;;;15.24;74.99;98467.09;5035815;28;8866;-63
2022/05/24 04:42:25;;;;;;;;;6.75;6.00;;;;;15.20;74.70;98476.50;5036330;28;8994;-63
2022/05/24 04:44:52;;;;;;;;;5.75;5.00;;;;;15.18;75.19;98479.38;5036438;28;8955;-63
2022/05/24 04:47:20;;;;;;;;;6.50;6.50;;;;;15.14;74.85;98479.94;5036572;28;8970;-63
2022/05/24 04:49:50;;;;;;;;;6.50;6.25;;;;;15.11;74.95;98480.31;5035850;28;8844;-64
2022/05/24 04:52:17;;;;;;;;;5.00;4.00;;;;;15.09;75.10;98477.81;5035622;28;8919;-63
2022/05/24 04:54:45;;;;;;;;;6.50;4.00;;;;;15.09;74.95;98483.19;5035759;28;8955;-63
2022/05/24 04:57:13;;;;;;;;;3.00;3.00;;;;;15.08;74.60;98481.53;5035944;28;8871;-63
2022/05/24 04:59:41;;;;;;;;;7.00;7.00;;;;;15.08;74.69;98489.56;5044800;28;8815;-62
2022/05/24 05:02:16;;;;;;;;;5.75;4.50;;;;;15.07;74.98;98492.41;5054955;28;8826;-62
2022/05/24 05:04:44;;;;;;;;;7.50;6.75;;;;;15.08;74.29;98486.03;5054778;28;8862;-62
2022/05/24 05:07:12;;;;;;;;;6.50;4.50;;;;;15.10;74.42;98500.13;5054522;28;8838;-63
2022/05/24 05:09:40;;;;;;;;;1.50;1.00;;;;;15.08;75.00;98499.44;5054480;28;8885;-64
2022/05/24 05:12:08;;;;;;;;;6.25;6.25;;;;;15.04;75.07;98519.63;5044893;28;8839;-64
2022/05/24 05:14:35;;;;;;;;;0.25;0.25;;;;;14.97;74.53;98514.16;5035534;28;8869;-64
2022/05/24 05:17:03;;;;;;;;;4.00;4.00;;;;;14.90;74.88;98517.75;5034618;28;8855;-64
2022/05/24 05:19:31;;;;;;;;;4.50;3.25;;;;;14.79;74.97;98518.22;5035198;28;8985;-63
2022/05/24 05:21:59;;;;;;;;;3.75;3.00;;;;;14.67;74.88;98535.75;5035307;28;8947;-64
2022/05/24 05:24:26;;;;;;;;;5.00;4.00;;;;;14.52;75.11;98529.53;5035573;28;8999;-64
2022/05/24 05:26:54;;;;;;;;;3.00;3.00;;;;;14.41;75.52;98538.00;5053544;28;9488;-66
2022/05/24 05:32:04;;;;;;;;;3.25;3.25;;;;;14.14;76.16;98557.25;5054418;28;8850;-64
2022/05/24 05:34:31;;;;;;;;;2.75;2.75;;;;;13.98;76.93;98565.41;5053749;28;8845;-63
2022/05/24 05:36:59;;;;;;;;;3.00;3.00;;;;;13.80;77.12;98575.53;5054490;28;8984;-63
2022/05/24 05:39:27;;;;;;;;;4.00;3.00;;;;;13.65;77.77;98593.31;5054741;28;8931;-64
2022/05/24 05:41:55;;;;;;;;;1.00;1.00;;;;;13.49;77.76;98604.94;5054519;28;9602;-64
2022/05/24 05:44:23;;;;;;;;;4.00;4.00;;;;;13.35;77.71;98602.97;5071449;28;8940;-63
2022/05/24 05:46:50;;;;;;;;;3.25;3.25;;;;;13.26;78.55;98605.84;5074437;28;8832;-63
2022/05/24 05:49:18;;;;;;;;;3.75;3.00;;;;;13.18;78.59;98604.03;5073430;28;8836;-63
2022/05/24 05:51:46;;;;;;;;;3.00;3.00;;;;;13.10;78.47;98612.09;5072775;28;9560;-64
2022/05/24 05:54:14;;;;;;;;;3.75;3.75;;;;;13.02;79.15;98614.78;5075245;28;9118;-67
2022/05/24 05:56:41;;;;;;;;;2.00;1.00;;;;;12.94;79.14;98630.81;5076597;28;8913;-63
2022/05/24 05:59:09;;;;;;;;;3.75;3.00;;;;;12.89;79.44;98630.44;5075832;28;8955;-63
2022/05/24 06:01:37;;;;;;;;;0.00;0.00;;;;;12.82;79.34;98629.47;5075987;28;8970;-64
2022/05/24 06:04:05;;;;;;;;;4.00;4.00;;;;;12.79;79.50;98639.63;5075880;28;8847;-64
2022/05/24 06:06:33;;;;;;;;;3.75;3.50;;;;;12.73;79.15;98638.47;5076446;28;8836;-64
2022/05/24 06:09:01;;;;;;;;;3.50;3.50;;;;;12.69;79.56;98647.00;5076855;28;8848;-63
2022/05/24 06:11:29;;;;;;;;;2.00;1.50;;;;;12.65;79.28;98645.66;5076841;28;8839;-68
2022/05/24 06:13:57;;;;;;;;;4.00;4.00;;;;;12.62;79.85;98660.16;5076328;28;8860;-64
2022/05/24 06:16:31;;;;;;;;;2.50;2.50;;;;;12.60;79.79;98654.16;5076072;28;8836;-63
2022/05/24 06:18:59;;;;;;;;;3.00;3.00;;;;;12.62;79.79;98659.34;5061543;28;8836;-62
2022/05/24 06:21:28;;;;;;;;;3.75;3.50;;;;;12.62;79.80;98660.16;5072220;28;8850;-62
2022/05/24 06:23:56;;;;;;;;;2.50;2.50;;;;;12.63;79.46;98661.00;5076810;28;9727;-62
2022/05/24 06:26:23;;;;;;;;;3.50;3.00;;;;;12.63;79.39;98669.03;5049571;28;8894;-63
2022/05/24 06:28:51;;;;;;;;;3.50;3.25;;;;;12.64;80.19;98673.38;5039105;28;8839;-64
2022/05/24 06:31:19;;;;;;;;;0.00;0.00;;;;;12.65;79.58;98677.69;5058151;28;9499;-62
2022/05/24 06:33:48;;;;;;;;;6.50;6.00;;;;;12.62;80.05;98683.38;5057137;28;9016;-63
2022/05/24 06:36:16;;;;;;;;;3.25;3.25;;;;;12.62;79.90;98688.72;5057670;28;8838;-66
2022/05/24 06:38:44;;;;;;;;;2.00;2.00;;;;;12.59;79.75;98689.03;5055289;28;8957;-63
2022/05/24 06:41:12;;;;;;;;;5.00;5.00;;;;;12.57;80.05;98699.06;5036701;28;8832;-63
2022/05/24 06:43:39;;;;;;;;;7.00;5.00;;;;;12.58;79.69;98706.91;5036370;28;8986;-67
2022/05/24 06:46:08;;;;;;;;;3.00;3.00;;;;;12.56;79.89;98716.94;5052092;28;8815;-64
2022/05/24 06:48:36;;;;;;;;;4.00;3.25;;;;;12.53;79.81;98725.25;5056466;28;8850;-64
2022/05/24 06:51:04;;;;;;;;;5.75;5.75;;;;;12.53;80.27;98732.44;5056571;28;8846;-63
2022/05/24 06:53:32;;;;;;;;;3.00;3.00;;;;;12.50;80.44;98738.09;5056906;28;8872;-64
2022/05/24 06:55:59;;;;;;;;;3.00;3.00;;;;;12.48;80.43;98743.63;5056071;28;8846;-63
2022/05/24 06:58:27;;;;;;;;;2.50;2.50;;;;;12.46;80.61;98726.91;5055757;28;8846;-63
2022/05/24 07:03:40;;;;;;;;;3.75;3.75;;;;;12.40;80.38;98742.75;5049775;28;8826;-63
2022/05/24 07:06:15;;;;;;;;;4.00;4.00;;;;;12.38;80.30;98739.41;5055702;28;8880;-63
2022/05/24 07:08:42;;;;;;;;;4.00;4.00;;;;;12.39;81.09;98739.25;5056002;28;8842;-63
2022/05/24 07:11:12;;;;;;;;;4.00;3.00;;;;;12.44;80.37;98736.91;5053172;28;8845;-62
2022/05/24 07:13:40;;;;;;;;;4.00;3.50;;;;;12.45;80.25;98738.59;5055823;28;8882;-63
2022/05/24 07:16:08;;;;;;;;;2.00;2.00;;;;;12.46;80.10;98713.56;5054550;28;8901;-63
2022/05/24 07:18:36;;;;;;;;;4.00;3.00;;;;;12.51;80.21;98667.66;5041592;28;8832;-62
2022/05/24 07:21:04;;;;;;;;;2.50;2.50;;;;;12.60;80.24;98688.06;5036373;28;9614;-63
2022/05/24 07:23:32;;;;;;;;;3.00;3.00;;;;;12.71;79.66;98719.78;5036616;28;8995;-63
2022/05/24 07:26:00;;;;;;;;;1.00;1.00;;;;;12.74;79.45;98727.44;5049472;28;8977;-68
2022/05/24 07:28:28;;;;;;;;;2.00;2.00;;;;;12.75;79.12;98713.13;5056589;28;8834;-63
2022/05/24 07:30:55;;;;;;;;;1.00;1.00;;;;;12.74;79.52;98735.47;5049030;28;8925;-64
2022/05/24 07:33:23;;;;;;;;;1.00;0.75;;;;;12.75;79.12;98739.84;5036409;28;8855;-63
2022/05/24 07:35:53;;;;;;;;;0.75;0.75;;;;;12.76;79.15;98752.19;5035680;28;8844;-64
2022/05/24 07:38:21;;;;;;;;;2.00;2.00;;;;;12.79;79.29;98742.00;5035238;28;8837;-63
2022/05/24 07:46:32;;;;;;;;;1.00;1.00;;;;;13.07;78.27;98745.22;5035605;28;8824;-64
2022/05/24 07:48:59;;;;;;;;;1.00;0.00;;;;;13.15;77.81;98747.91;5036038;28;8933;-64
2022/05/24 07:51:27;;;;;;;;;1.00;1.00;;;;;13.22;77.88;98755.06;5035009;28;8865;-63
2022/05/24 07:53:55;;;;;;;;;1.00;1.00;;;;;13.31;77.77;98763.94;5034791;28;8847;-63
2022/05/24 07:56:23;;;;;;;;;3.00;3.00;;;;;13.42;77.14;98766.25;5034920;28;8867;-63
2022/05/24 07:58:51;;;;;;;;;1.00;0.75;;;;;13.51;77.16;98770.59;5034591;28;8825;-63
2022/05/24 08:01:19;;;;;;;;;3.00;3.00;;;;;13.58;77.14;98771.59;5033951;28;8840;-62
2022/05/24 08:03:47;;;;;;;;;1.00;1.00;;;;;13.70;76.93;98778.25;5034360;28;8844;-63
2022/05/24 08:06:17;;;;;;;;;3.75;3.50;;;;;13.86;76.83;98791.59;5034928;28;8852;-62
2022/05/24 08:08:45;;;;;;;;;1.00;1.00;;;;;14.02;75.94;98788.88;5034979;28;8840;-62
2022/05/24 08:11:12;;;;;;;;;1.00;1.00;;;;;14.14;75.93;98787.50;5034401;28;8858;-62
2022/05/24 08:13:40;;;;;;;;;3.00;2.00;;;;;14.24;75.79;98788.16;5033547;28;8864;-62
2022/05/24 08:16:08;;;;;;;;;1.00;1.00;;;;;14.31;75.74;98792.66;5047829;28;8853;-62
2022/05/24 08:18:35;;;;;;;;;1.00;1.00;;;;;14.42;75.39;98781.56;5054418;28;8932;-62
2022/05/24 08:21:03;;;;;;;;;1.00;1.00;;;;;14.64;75.13;98772.75;5038628;28;8855;-63
2022/05/24 08:23:32;;;;;;;;;1.00;1.00;;;;;14.81;74.60;98774.31;5040711;28;8821;-62
2022/05/24 08:26:00;;;;;;;;;0.75;0.75;;;;;14.80;74.36;98777.19;5034541;28;8852;-62
2022/05/24 08:28:28;;;;;;;;;0.00;0.00;;;;;14.77;74.04;98778.38;5042676;28;8818;-62
2022/05/24 08:30:56;;;;;;;;;0.00;0.00;;;;;14.82;74.43;98780.50;5044270;28;8833;-62
2022/05/24 08:33:24;;;;;;;;;1.00;1.00;;;;;14.82;74.03;98770.63;5048037;28;8980;-62
2022/05/24 08:35:51;;;;;;;;;1.00;1.00;;;;;14.85;74.11;98781.00;5054753;28;8834;-62
2022/05/24 08:38:19;;;;;;;;;1.00;1.00;;;;;14.91;73.89;98782.97;5034578;28;8858;-63
2022/05/24 08:40:47;;;;;;;;;1.00;1.00;;;;;14.97;73.99;98778.75;5035062;28;8932;-63
2022/05/24 08:43:15;;;;;;;;;1.00;1.00;;;;;15.04;73.48;98780.53;5034757;28;8899;-63
2022/05/24 08:48:28;;;;;;;;;1.00;1.00;;;;;15.24;72.79;98770.97;5033870;28;8860;-62
2022/05/24 08:50:56;;;;;;;;;3.00;1.50;;;;;15.38;72.75;98778.28;5034457;28;9590;-63
2022/05/24 08:53:24;;;;;;;;;1.00;1.00;;;;;15.56;72.01;98783.31;5034457;28;8852;-62
2022/05/24 08:55:52;;;;;;;;;2.50;1.75;;;;;15.69;71.30;98796.97;5035223;28;8902;-63
2022/05/24 08:58:19;;;;;;;;;1.00;1.00;;;;;15.74;71.52;98794.56;5034935;28;8991;-62
2022/05/24 09:00:47;;;;;;;;;2.00;2.00;;;;;15.83;71.07;98793.44;5034512;28;8894;-63
2022/05/24 09:03:15;;;;;;;;;0.50;0.50;;;;;15.86;71.13;98796.59;5034871;28;8840;-62
2022/05/24 09:05:43;;;;;;;;;2.50;1.00;;;;;15.98;70.83;98802.34;5040905;28;8834;-63
2022/05/24 09:08:11;;;;;;;;;3.50;3.00;;;;;16.01;70.62;98812.75;5054071;28;8857;-62
2022/05/24 09:10:38;;;;;;;;;3.00;1.00;;;;;15.96;71.23;98823.19;5053276;28;8866;-63
2022/05/24 09:13:06;;;;;;;;;1.50;1.50;;;;;15.84;71.37;98832.72;5049694;28;8994;-62
2022/05/24 09:15:34;;;;;;;;;3.00;3.00;;;;;15.78;71.67;98833.44;5053047;28;9767;-62
2022/05/24 09:18:02;;;;;;;;;4.00;4.00;;;;;15.91;70.99;98844.41;5053182;28;8857;-66
2022/05/24 09:20:30;;;;;;;;;3.00;3.00;;;;;16.10;70.52;98838.50;5052685;28;8867;-63
2022/05/24 09:22:57;;;;;;;;;2.00;2.00;;;;;16.31;69.69;98837.59;5052272;28;9528;-63
2022/05/24 09:25:25;;;;;;;;;3.00;3.00;;;;;16.52;69.46;98844.94;5051694;28;8865;-63
2022/05/24 09:27:53;;;;;;;;;4.00;3.25;;;;;16.60;68.84;98847.53;5051842;28;8973;-63
2022/05/24 09:30:21;;;;;;;;;4.00;4.00;;;;;16.57;68.28;98853.28;5052932;28;8939;-63
2022/05/24 09:32:49;;;;;;;;;5.50;4.00;;;;;16.56;68.91;98852.44;5052868;28;8870;-63
2022/05/24 09:35:18;;;;;;;;;5.00;5.00;;;;;16.67;68.85;98865.41;5050531;28;10500;-63
2022/05/24 09:37:45;;;;;;;;;4.00;4.00;;;;;16.54;69.18;98865.22;5033454;28;8966;-64
2022/05/24 09:40:13;;;;;;;;;6.00;6.00;;;;;16.33;69.65;98865.09;5033779;28;8921;-63
2022/05/24 09:42:41;;;;;;;;;0.00;0.00;;;;;16.16;70.10;98859.25;5034144;28;8856;-64
2022/05/24 09:45:09;;;;;;;;;3.00;3.00;;;;;16.29;69.42;98866.50;5033623;28;8853;-62
2022/05/24 09:47:37;;;;;;;;;5.00;4.50;;;;;16.72;68.28;98867.53;5034603;28;8848;-62
2022/05/24 09:50:05;;;;;;;;;4.67;4.00;;;;;16.96;67.50;98861.84;5034375;28;8862;-62
2022/05/24 09:52:32;;;;;;;;;5.00;5.00;;;;;16.93;67.58;98876.50;5033741;28;8856;-62
2022/05/24 09:55:00;;;;;;;;;3.00;3.00;;;;;16.80;67.62;98875.50;5034317;28;8905;-62
2022/05/24 09:57:28;;;;;;;;;3.00;3.00;;;;;16.69;68.01;98874.13;5033082;28;8856;-63
2022/05/24 09:59:56;;;;;;;;;0.50;0.00;;;;;16.65;67.71;98872.81;5052156;28;8832;-63
2022/05/24 10:02:24;;;;;;;;;3.00;3.00;;;;;16.65;67.45;98877.38;5053144;28;8984;-64
2022/05/24 10:04:51;;;;;;;;;3.00;3.00;;;;;16.62;67.91;98875.06;5051704;28;8830;-63
2022/05/24 10:07:25;;;;;;;;;2.00;2.00;;;;;16.57;67.25;98890.91;5052394;28;8865;-63
2022/05/24 10:09:53;;;;;;;;;1.50;1.50;;;;;16.55;67.19;98888.41;5051526;28;8846;-63
2022/05/24 10:12:27;;;;;;;;;5.50;5.50;;;;;16.51;68.09;98891.66;5049830;28;8831;-62
2022/05/24 10:14:55;;;;;;;;;3.00;3.00;;;;;16.37;67.53;98900.53;5047700;28;8838;-63
2022/05/24 10:17:23;;;;;;;;;6.00;6.00;;;;;16.23;68.03;98904.84;5049917;28;8929;-68
2022/05/24 10:19:52;;;;;;;;;3.25;3.25;;;;;16.07;67.76;98898.78;5050536;28;8862;-63
2022/05/24 10:22:20;;;;;;;;;4.00;3.75;;;;;15.93;68.60;98901.44;5050808;28;8834;-64
2022/05/24 10:24:47;;;;;;;;;3.25;3.25;;;;;15.85;68.57;98904.22;5051635;28;8838;-63
2022/05/24 10:27:17;;;;;;;;;4.50;3.50;;;;;15.86;68.59;98900.50;5052976;28;8993;-63
2022/05/24 10:29:45;;;;;;;;;4.00;3.00;;;;;15.91;68.45;98915.03;5051678;28;8818;-64
2022/05/24 10:38:17;;;;;;;;;1.00;1.00;;;;;15.99;67.72;98906.09;5032516;28;8841;-62
2022/05/24 10:40:32;;;;;;;;;3.25;3.25;;;;;16.17;66.97;98920.03;5036452;28;9002;-63
2022/05/24 10:43:06;;;;;;;;;0.75;0.75;;;;;16.24;66.74;98929.84;5037010;28;8869;-62
2022/05/24 10:45:49;;;;;;;;;1.00;1.00;;;;;16.44;65.93;98926.50;5036244;28;8971;-63
2022/05/24 10:48:17;;;;;;;;;2.00;1.00;;;;;16.91;65.20;98921.59;5049529;28;8884;-63
2022/05/24 10:50:45;;;;;;;;;1.00;1.00;;;;;17.78;62.98;98923.25;5054685;28;8846;-64
2022/05/24 10:53:13;;;;;;;;;2.00;2.00;;;;;18.83;61.24;98909.59;5054197;28;8872;-63
2022/05/24 10:55:41;;;;;;;;;1.00;1.00;;;;;19.92;59.02;98892.09;5054727;28;8931;-62
2022/05/24 10:58:11;;;;;;;;;3.00;3.00;;;;;20.59;57.04;98895.44;5055076;28;8846;-63
2022/05/24 11:00:38;;;;;;;;;1.00;1.00;;;;;20.30;58.34;98898.56;5055705;28;8880;-64
2022/05/24 11:03:06;;;;;;;;;3.40;3.00;;;;;19.66;59.32;98910.97;5055017;28;8976;-64
2022/05/24 11:05:34;;;;;;;;;3.00;3.00;;;;;18.98;60.52;98921.91;5054517;28;8923;-63
2022/05/24 11:08:02;;;;;;;;;3.60;3.60;;;;;18.71;61.78;98920.09;5055368;28;8923;-63
2022/05/24 11:10:30;;;;;;;;;2.40;2.40;;;;;19.09;61.30;98915.94;5055483;28;9004;-63
2022/05/24 11:12:57;;;;;;;;;3.20;3.00;;;;;19.95;58.52;98916.00;5055353;28;8861;-63
2022/05/24 11:15:28;;;;;;;;;3.60;2.80;;;;;20.71;57.16;98901.03;5055819;28;8838;-63
2022/05/24 11:17:55;;;;;;;;;0.00;0.00;;;;;21.50;55.35;98889.69;5045906;28;9539;-64
2022/05/24 11:20:23;;;;;;;;;2.00;2.00;;;;;22.13;54.41;98903.06;5035422;28;9526;-63
2022/05/24 11:22:51;;;;;;;;;2.00;2.00;;;;;21.81;54.38;98911.44;5035342;28;9514;-63
2022/05/24 11:25:19;;;;;;;;;2.00;2.00;;;;;21.78;54.68;98899.13;5035521;28;8871;-64
2022/05/24 11:27:47;;;;;;;;;2.80;2.80;;;;;21.33;55.83;98905.63;5035057;28;9409;-64
2022/05/24 11:30:15;;;;;;;;;2.80;2.80;;;;;20.96;56.33;98905.56;5034262;28;8853;-64
2022/05/24 11:32:43;;;;;;;;;2.80;2.80;;;;;20.88;56.85;98896.84;5035981;28;8886;-63
2022/05/24 11:35:11;;;;;;;;;4.40;4.00;;;;;20.96;55.76;98900.97;5035664;28;8856;-63
2022/05/24 11:37:39;;;;;;;;;1.00;0.60;;;;;21.19;55.56;98911.31;5035667;28;8937;-64
2022/05/24 11:40:08;;;;;;;;;2.00;2.00;;;;;21.81;54.01;98904.13;5035317;28;8970;-63
2022/05/24 11:42:35;;;;;;;;;1.00;1.00;;;;;22.46;53.27;98900.09;5036454;28;8990;-64
2022/05/24 11:45:03;;;;;;;;;1.80;1.80;;;;;23.09;52.21;98904.22;5037049;28;8840;-64
2022/05/24 11:47:31;;;;;;;;;2.80;1.80;;;;;23.38;51.13;98900.78;5055574;28;8850;-64
2022/05/24 11:50:04;;;;;;;;;1.80;1.80;;;;;22.85;51.69;98911.38;5054877;28;8869;-68
2022/05/24 11:52:32;;;;;;;;;1.00;1.00;;;;;23.13;50.32;98908.16;5055097;28;8932;-64
2022/05/24 11:54:59;;;;;;;;;1.60;1.60;;;;;23.60;50.29;98907.38;5054596;28;8980;-64
2022/05/24 11:57:28;;;;;;;;;1.00;1.00;;;;;23.34;50.25;98919.41;5055158;28;9608;-64
2022/05/24 11:59:55;;;;;;;;;1.00;1.00;;;;;22.49;52.01;98921.34;5054676;28;8846;-65
2022/05/24 12:02:25;;;;;;;;;2.80;2.80;;;;;21.64;53.24;98929.22;5055193;28;9039;-64
2022/05/24 12:07:55;;;;;;;;;1.60;1.00;;;;;20.71;55.52;98939.72;5035043;28;8852;-64
2022/05/24 12:10:24;;;;;;;;;1.60;1.60;;;;;20.66;55.67;98942.25;5035146;28;8852;-63
2022/05/24 12:12:51;;;;;;;;;1.20;1.20;;;;;20.65;55.39;98950.56;5035270;28;8856;-64
2022/05/24 12:15:19;;;;;;;;;0.00;0.00;;;;;20.57;54.92;98953.50;5034107;28;8960;-63
2022/05/24 12:17:47;;;;;;;;;1.00;1.00;;;;;20.47;54.53;98956.59;5033690;28;8844;-63